Time;durP1;ratioP1;P1;durP2;ratioP2;P2;SDS_P1;SDS_P2;PMS_P1;PMS_P2;Temp;Humidity;BMP_temperature;BMP_pressure;BME280_temperature;BME280_humidity;BME280_pressure;Samples;Min_cycle;Max_cycle;Signal;HPM_P1;HPM_P2
2021/10/16 00:01:39;;;;;;;6.87;4.10;;;5.40;97.30;;;;;;5021625;28;20506;-84
2021/10/16 00:04:05;;;;;;;5.83;4.50;;;5.40;97.30;;;;;;5002491;28;20208;-86
2021/10/16 00:06:30;;;;;;;10.30;4.70;;;5.40;97.30;;;;;;4997759;28;20260;-84
2021/10/16 00:08:56;;;;;;;14.43;4.30;;;5.40;97.30;;;;;;4998252;28;20659;-83
2021/10/16 00:11:21;;;;;;;8.17;4.53;;;5.50;97.30;;;;;;4999545;28;20624;-85
2021/10/16 00:13:47;;;;;;;10.90;4.70;;;5.40;97.30;;;;;;5000452;28;20238;-84
2021/10/16 00:16:12;;;;;;;9.13;4.60;;;5.40;97.30;;;;;;5006645;28;20682;-85
2021/10/16 00:18:38;;;;;;;8.43;4.30;;;5.40;97.30;;;;;;5003626;28;20168;-85
2021/10/16 00:21:04;;;;;;;9.00;4.97;;;5.40;97.30;;;;;;5012927;28;20189;-84
2021/10/16 00:23:30;;;;;;;9.60;4.87;;;5.30;97.30;;;;;;4996888;28;20204;-85
2021/10/16 00:25:56;;;;;;;8.40;5.10;;;5.30;97.30;;;;;;5005769;28;20422;-84
2021/10/16 00:28:22;;;;;;;21.03;5.50;;;5.30;97.30;;;;;;4997361;28;20181;-83
2021/10/16 00:30:48;;;;;;;8.77;4.70;;;5.30;97.30;;;;;;4997491;28;20460;-84
2021/10/16 00:33:15;;;;;;;6.63;4.53;;;5.20;97.30;;;;;;5011550;28;20427;-84
2021/10/16 00:35:41;;;;;;;9.23;5.10;;;5.30;97.30;;;;;;5009973;28;20415;-82
2021/10/16 00:38:09;;;;;;;9.47;4.50;;;5.30;97.30;;;;;;5005763;28;20427;-84
2021/10/16 00:40:35;;;;;;;9.37;4.87;;;5.30;97.30;;;;;;5014187;28;20745;-82
2021/10/16 00:43:00;;;;;;;12.30;5.23;;;5.40;97.30;;;;;;4997218;28;20463;-85
2021/10/16 00:45:26;;;;;;;8.20;4.90;;;5.40;97.30;;;;;;5006100;28;20638;-83
2021/10/16 00:47:52;;;;;;;7.87;4.90;;;5.40;97.30;;;;;;5016463;28;20181;-80
2021/10/16 00:50:21;;;;;;;8.80;5.33;;;5.40;97.30;;;;;;5016566;28;20487;-80
2021/10/16 00:52:48;;;;;;;6.60;4.00;;;5.40;97.30;;;;;;5016053;28;20477;-84
2021/10/16 00:55:15;;;;;;;10.80;4.40;;;5.40;97.30;;;;;;5033793;28;21158;-81
2021/10/16 00:57:42;;;;;;;6.50;3.97;;;5.40;97.30;;;;;;5015882;28;20510;-80
2021/10/16 01:00:10;;;;;;;10.27;4.40;;;5.30;97.30;;;;;;5030581;28;20441;-84
2021/10/16 01:02:36;;;;;;;8.60;4.30;;;5.20;97.30;;;;;;5010740;28;20448;-83
2021/10/16 01:05:03;;;;;;;7.37;4.23;;;5.20;97.30;;;;;;5009299;28;20782;-84
2021/10/16 01:07:29;;;;;;;9.43;4.13;;;5.20;97.30;;;;;;5008548;28;20542;-85
2021/10/16 01:09:55;;;;;;;7.40;4.17;;;5.10;97.30;;;;;;5007883;28;20445;-84
2021/10/16 01:12:21;;;;;;;9.77;4.10;;;5.10;97.30;;;;;;5007097;28;20503;-84
2021/10/16 01:14:57;;;;;;;9.33;5.27;;;5.10;97.30;;;;;;5008287;28;20519;-82
2021/10/16 01:17:23;;;;;;;15.57;4.17;;;5.00;97.30;;;;;;5005940;28;21187;-85
2021/10/16 01:20:00;;;;;;;11.07;5.00;;;5.00;97.30;;;;;;5032868;28;20446;-83
2021/10/16 01:22:27;;;;;;;7.90;4.40;;;5.00;97.30;;;;;;5036681;28;20500;-84
2021/10/16 01:24:54;;;;;;;4.97;3.60;;;4.90;97.30;;;;;;5023299;28;20459;-85
2021/10/16 01:27:19;;;;;;;13.40;4.53;;;4.90;97.30;;;;;;5006909;28;20415;-83
2021/10/16 01:29:46;;;;;;;15.40;4.33;;;4.90;97.30;;;;;;5036358;28;20518;-84
2021/10/16 01:32:12;;;;;;;8.30;4.40;;;4.90;97.30;;;;;;5036302;28;20177;-84
2021/10/16 01:34:38;;;;;;;8.73;4.50;;;4.90;97.30;;;;;;5034436;28;20423;-84
2021/10/16 01:37:03;;;;;;;13.33;4.37;;;4.80;97.30;;;;;;5017872;28;20422;-84
2021/10/16 01:39:30;;;;;;;6.83;3.90;;;4.80;97.30;;;;;;5022983;28;20648;-84
2021/10/16 01:41:56;;;;;;;8.63;4.07;;;4.80;97.30;;;;;;4999409;28;20762;-85
2021/10/16 01:44:22;;;;;;;9.60;4.67;;;4.70;97.30;;;;;;5012718;28;20486;-84
2021/10/16 01:46:48;;;;;;;8.80;3.80;;;4.70;97.30;;;;;;5010409;28;20176;-83
2021/10/16 01:49:16;;;;;;;7.33;4.10;;;4.70;97.30;;;;;;5008697;28;20443;-85
2021/10/16 01:51:44;;;;;;;10.03;4.40;;;4.70;97.30;;;;;;5014765;28;20708;-83
2021/10/16 01:54:10;;;;;;;8.77;4.33;;;4.60;97.30;;;;;;5016032;28;20408;-85
2021/10/16 01:56:36;;;;;;;7.10;5.13;;;4.60;97.30;;;;;;5003822;28;20415;-84
2021/10/16 01:59:15;;;;;;;12.70;4.43;;;4.60;97.30;;;;;;5019299;28;20172;-84
2021/10/16 02:02:17;;;;;;;12.97;4.30;;;4.60;97.30;;;;;;5036679;22;21708;-85
2021/10/16 02:04:43;;;;;;;9.60;4.37;;;4.60;97.30;;;;;;5064359;28;20434;-84
2021/10/16 02:07:08;;;;;;;8.83;4.60;;;4.60;97.30;;;;;;5055670;28;20399;-84
2021/10/16 02:09:34;;;;;;;11.93;4.27;;;4.60;97.30;;;;;;5055352;28;20176;-84
2021/10/16 02:11:59;;;;;;;9.07;4.40;;;4.60;97.30;;;;;;5047794;28;20219;-84
2021/10/16 02:14:27;;;;;;;10.17;4.23;;;4.60;97.30;;;;;;5036435;28;20181;-84
2021/10/16 02:17:11;;;;;;;8.50;4.17;;;4.60;97.30;;;;;;5036546;28;20239;-85
2021/10/16 02:19:46;;;;;;;9.03;4.43;;;4.60;97.30;;;;;;5036214;28;20399;-84
2021/10/16 02:22:11;;;;;;;7.83;4.47;;;4.60;97.30;;;;;;5033100;23;20498;-81
2021/10/16 02:24:37;;;;;;;9.27;4.73;;;4.60;97.30;;;;;;5015807;28;20428;-81
2021/10/16 02:27:02;;;;;;;7.23;4.23;;;4.60;97.30;;;;;;5013821;28;20176;-82
2021/10/16 02:29:28;;;;;;;9.47;4.10;;;4.70;97.30;;;;;;5014737;28;20693;-81
2021/10/16 02:31:54;;;;;;;10.60;5.00;;;4.70;97.30;;;;;;5014845;28;20605;-81
2021/10/16 02:34:19;;;;;;;8.80;4.60;;;4.80;97.30;;;;;;5013624;28;20197;-81
2021/10/16 02:36:45;;;;;;;6.40;4.37;;;4.80;97.30;;;;;;5015211;28;20239;-81
2021/10/16 02:39:10;;;;;;;10.10;4.90;;;4.80;97.30;;;;;;5013568;28;20181;-81
2021/10/16 02:41:36;;;;;;;9.27;4.93;;;4.80;97.30;;;;;;5012759;28;20191;-80
2021/10/16 02:44:02;;;;;;;10.67;5.33;;;4.80;97.30;;;;;;5012582;28;20654;-84
2021/10/16 02:46:27;;;;;;;9.00;4.60;;;4.80;97.30;;;;;;5012617;28;20276;-83
2021/10/16 02:48:53;;;;;;;7.17;4.00;;;4.80;97.30;;;;;;5020215;28;20259;-83
2021/10/16 02:51:18;;;;;;;7.17;4.10;;;4.80;97.30;;;;;;5032550;28;20278;-84
2021/10/16 02:53:44;;;;;;;10.40;4.40;;;4.80;97.30;;;;;;5032899;28;20192;-84
2021/10/16 02:56:09;;;;;;;7.40;3.63;;;4.80;97.30;;;;;;5032038;28;20184;-84
2021/10/16 02:58:35;;;;;;;5.73;4.17;;;4.80;97.30;;;;;;5031681;28;20181;-84
2021/10/16 03:01:00;;;;;;;13.27;5.37;;;4.70;97.30;;;;;;5032425;28;20180;-83
2021/10/16 03:03:26;;;;;;;12.43;4.60;;;4.60;97.30;;;;;;5032454;28;20208;-84
2021/10/16 03:05:51;;;;;;;8.87;5.20;;;4.60;97.30;;;;;;5033937;28;20181;-84
2021/10/16 03:08:17;;;;;;;9.90;4.20;;;4.60;97.30;;;;;;5032277;28;20177;-83
2021/10/16 03:10:43;;;;;;;7.57;4.50;;;4.50;97.30;;;;;;5031867;28;20173;-84
2021/10/16 03:13:09;;;;;;;13.23;4.60;;;4.50;97.30;;;;;;5032555;28;20185;-84
2021/10/16 03:15:34;;;;;;;11.50;4.30;;;4.40;97.30;;;;;;5032223;28;20466;-84
2021/10/16 03:18:00;;;;;;;6.50;3.87;;;4.40;97.30;;;;;;5032269;28;20234;-83
2021/10/16 03:20:25;;;;;;;11.60;4.90;;;4.40;97.30;;;;;;5032802;28;20690;-84
2021/10/16 03:22:51;;;;;;;14.20;4.60;;;4.40;97.30;;;;;;5032837;28;20232;-84
2021/10/16 03:25:16;;;;;;;6.80;4.17;;;4.40;97.30;;;;;;5033017;28;20192;-84
2021/10/16 03:27:42;;;;;;;6.93;4.53;;;4.30;97.30;;;;;;5034507;28;20169;-83
2021/10/16 03:30:08;;;;;;;7.67;4.33;;;4.30;97.30;;;;;;5033653;28;20175;-83
2021/10/16 03:32:33;;;;;;;10.67;4.60;;;4.30;97.30;;;;;;5033073;28;20318;-84
2021/10/16 03:34:59;;;;;;;10.67;4.33;;;4.30;97.30;;;;;;5033236;28;20197;-84
2021/10/16 03:37:25;;;;;;;9.30;4.17;;;4.30;97.30;;;;;;5032913;28;20577;-83
2021/10/16 03:39:50;;;;;;;15.47;4.60;;;4.30;97.30;;;;;;5033753;28;20173;-84
2021/10/16 03:42:16;;;;;;;5.97;4.20;;;4.30;97.30;;;;;;5032988;28;20285;-83
2021/10/16 03:44:41;;;;;;;6.30;3.93;;;4.30;97.30;;;;;;5032625;28;20192;-83
2021/10/16 03:47:07;;;;;;;8.77;4.63;;;4.30;97.30;;;;;;5033145;28;20267;-83
2021/10/16 03:49:32;;;;;;;10.10;4.40;;;4.20;97.30;;;;;;5019952;28;20173;-83
2021/10/16 03:51:58;;;;;;;8.00;4.30;;;4.20;97.30;;;;;;5012534;28;20195;-84
2021/10/16 03:54:23;;;;;;;7.30;4.23;;;4.20;97.30;;;;;;5014636;28;20205;-83
2021/10/16 03:56:49;;;;;;;9.33;4.50;;;4.10;97.30;;;;;;5013080;28;20276;-83
2021/10/16 03:59:15;;;;;;;7.23;4.27;;;4.10;97.30;;;;;;5012599;28;20184;-83
2021/10/16 04:01:40;;;;;;;11.03;4.77;;;4.10;97.30;;;;;;5012489;28;20185;-83
2021/10/16 04:04:06;;;;;;;7.10;4.00;;;4.10;97.30;;;;;;5012661;28;20204;-83
2021/10/16 04:06:31;;;;;;;11.20;4.57;;;4.10;97.30;;;;;;5012551;28;20177;-83
2021/10/16 04:08:57;;;;;;;7.23;4.60;;;4.10;97.30;;;;;;5014089;28;20181;-84
2021/10/16 04:11:22;;;;;;;14.00;4.07;;;4.10;97.30;;;;;;5012030;28;20204;-83
2021/10/16 04:13:48;;;;;;;9.67;4.17;;;4.20;97.30;;;;;;5012173;28;20197;-84
2021/10/16 04:16:14;;;;;;;9.03;4.10;;;4.20;97.30;;;;;;5012201;28;20185;-83
2021/10/16 04:18:39;;;;;;;6.17;3.83;;;4.20;97.30;;;;;;5012262;28;20634;-83
2021/10/16 04:21:05;;;;;;;8.17;4.63;;;4.10;97.30;;;;;;5012619;28;20189;-84
2021/10/16 04:23:30;;;;;;;8.07;4.03;;;4.10;97.30;;;;;;5011874;28;20328;-83
2021/10/16 04:25:56;;;;;;;11.97;4.43;;;4.10;97.30;;;;;;5012336;28;20177;-83
2021/10/16 04:28:21;;;;;;;7.80;4.53;;;4.10;97.30;;;;;;5012053;28;20173;-83
2021/10/16 04:30:47;;;;;;;8.63;4.60;;;4.00;97.30;;;;;;5014466;28;20237;-83
2021/10/16 04:33:12;;;;;;;8.30;4.40;;;4.00;97.30;;;;;;5011798;28;20299;-83
2021/10/16 04:35:40;;;;;;;8.87;4.57;;;4.00;97.30;;;;;;5011697;28;20268;-83
2021/10/16 04:38:05;;;;;;;8.87;4.57;;;4.00;97.30;;;;;;5011539;28;20192;-83
2021/10/16 04:40:32;;;;;;;14.33;5.47;;;4.00;97.30;;;;;;5011846;28;20781;-83
2021/10/16 04:43:01;;;;;;;8.37;4.60;;;4.00;97.30;;;;;;5011500;28;20220;-84
2021/10/16 04:45:27;;;;;;;6.73;3.80;;;4.00;97.30;;;;;;5011503;28;20432;-84
2021/10/16 04:47:53;;;;;;;10.37;5.50;;;4.00;97.30;;;;;;5012582;28;20420;-84
2021/10/16 04:50:19;;;;;;;11.80;4.70;;;4.00;97.30;;;;;;5030415;28;20417;-84
2021/10/16 04:52:44;;;;;;;14.60;5.80;;;4.10;97.30;;;;;;5031515;28;20442;-83
2021/10/16 04:55:10;;;;;;;7.70;4.70;;;4.00;97.30;;;;;;5033429;28;20200;-83
2021/10/16 04:57:36;;;;;;;7.27;4.70;;;4.00;97.30;;;;;;5031905;28;20211;-84
2021/10/16 05:00:02;;;;;;;8.80;4.67;;;4.00;97.30;;;;;;5032393;28;20184;-84
2021/10/16 05:02:30;;;;;;;11.03;5.47;;;4.00;97.30;;;;;;5025665;28;20567;-83
2021/10/16 05:04:55;;;;;;;16.20;6.20;;;4.00;97.30;;;;;;5028391;28;20972;-83
2021/10/16 05:07:21;;;;;;;7.97;4.50;;;4.00;97.30;;;;;;5026266;28;20482;-82
2021/10/16 05:09:49;;;;;;;9.20;4.97;;;4.10;97.30;;;;;;5020561;28;20177;-84
2021/10/16 05:12:18;;;;;;;13.50;4.70;;;4.10;97.30;;;;;;5029791;28;20234;-85
2021/10/16 05:14:45;;;;;;;14.90;5.00;;;4.10;97.30;;;;;;5020930;28;20436;-84
2021/10/16 05:17:10;;;;;;;9.30;4.97;;;4.10;97.30;;;;;;5022303;28;20419;-84
2021/10/16 05:19:36;;;;;;;16.67;5.90;;;4.10;97.30;;;;;;5019137;28;20447;-83
2021/10/16 05:22:02;;;;;;;10.10;5.10;;;4.10;97.30;;;;;;5034223;28;20400;-83
2021/10/16 05:24:28;;;;;;;8.43;4.47;;;4.20;97.30;;;;;;5023698;28;20191;-85
2021/10/16 05:26:53;;;;;;;8.37;4.47;;;4.20;97.30;;;;;;5025386;28;20431;-86
2021/10/16 05:29:21;;;;;;;14.77;5.57;;;4.20;97.30;;;;;;5020661;28;20203;-85
2021/10/16 05:31:47;;;;;;;9.80;4.70;;;4.30;97.30;;;;;;5021384;28;20183;-84
2021/10/16 05:34:15;;;;;;;12.70;5.97;;;4.30;97.30;;;;;;5025497;28;20433;-84
2021/10/16 05:36:41;;;;;;;13.20;6.20;;;4.30;97.30;;;;;;5026621;28;20179;-83
2021/10/16 05:39:07;;;;;;;11.70;5.43;;;4.30;97.30;;;;;;5023677;28;20419;-84
2021/10/16 05:41:32;;;;;;;12.03;6.07;;;4.40;97.30;;;;;;5025356;28;20168;-84
2021/10/16 05:43:58;;;;;;;12.67;5.90;;;4.40;97.30;;;;;;5023708;28;20207;-83
2021/10/16 05:46:23;;;;;;;13.17;5.27;;;4.40;97.30;;;;;;5045199;28;20175;-84
2021/10/16 05:48:49;;;;;;;7.27;4.43;;;4.40;97.30;;;;;;5024670;28;20180;-83
2021/10/16 05:51:15;;;;;;;10.80;5.50;;;4.50;97.30;;;;;;5026033;28;20175;-84
2021/10/16 05:53:40;;;;;;;9.97;5.00;;;4.50;97.30;;;;;;5027009;28;20487;-84
2021/10/16 05:56:06;;;;;;;10.63;4.80;;;4.50;97.30;;;;;;5027059;28;20180;-84
2021/10/16 05:58:31;;;;;;;14.60;5.40;;;4.50;97.30;;;;;;5026011;28;20236;-84
2021/10/16 06:00:57;;;;;;;10.03;4.93;;;4.50;97.30;;;;;;5027667;28;20180;-84
2021/10/16 06:03:23;;;;;;;11.60;5.50;;;4.60;97.30;;;;;;5027899;28;20200;-84
2021/10/16 06:05:48;;;;;;;15.13;5.70;;;4.60;97.30;;;;;;5027600;28;20191;-84
2021/10/16 06:08:14;;;;;;;12.90;5.30;;;4.60;97.30;;;;;;5025736;28;20171;-84
2021/10/16 06:10:39;;;;;;;12.00;5.50;;;4.70;97.30;;;;;;5025298;28;20177;-84
2021/10/16 06:13:05;;;;;;;10.53;5.97;;;4.70;97.30;;;;;;5025680;28;20172;-84
2021/10/16 06:15:30;;;;;;;13.10;6.13;;;4.70;97.30;;;;;;5026020;28;20216;-84
2021/10/16 06:17:56;;;;;;;14.43;6.00;;;4.70;97.30;;;;;;5028519;28;20211;-84
2021/10/16 06:20:22;;;;;;;14.43;5.63;;;4.80;97.30;;;;;;5025930;28;20175;-83
2021/10/16 06:22:49;;;;;;;14.30;6.30;;;4.80;97.30;;;;;;5024374;28;20231;-83
2021/10/16 06:25:15;;;;;;;11.67;6.00;;;4.90;97.30;;;;;;5027096;28;20475;-84
2021/10/16 06:27:40;;;;;;;15.20;6.10;;;5.00;97.30;;;;;;5025952;28;20504;-84
2021/10/16 06:30:06;;;;;;;18.80;8.70;;;5.10;97.30;;;;;;5027011;28;20644;-84
2021/10/16 06:32:32;;;;;;;16.10;7.27;;;5.10;97.30;;;;;;5026417;28;20535;-84
2021/10/16 06:34:59;;;;;;;15.53;5.70;;;5.20;97.30;;;;;;5027804;28;20655;-85
2021/10/16 06:37:25;;;;;;;14.63;6.10;;;5.30;97.30;;;;;;5019422;28;20179;-85
2021/10/16 06:39:51;;;;;;;16.73;7.43;;;5.30;97.30;;;;;;5025501;28;20481;-85
2021/10/16 06:42:16;;;;;;;23.30;7.47;;;5.40;97.30;;;;;;5024382;28;20235;-85
2021/10/16 06:44:42;;;;;;;26.07;8.40;;;5.50;97.30;;;;;;5026978;28;20199;-85
2021/10/16 06:47:07;;;;;;;32.73;10.73;;;5.50;97.30;;;;;;5025430;28;20173;-85
2021/10/16 06:49:33;;;;;;;27.10;13.13;;;5.60;97.30;;;;;;5025917;28;20688;-85
2021/10/16 06:51:59;;;;;;;20.33;10.30;;;5.70;97.30;;;;;;5025451;28;20184;-85
2021/10/16 06:54:24;;;;;;;25.30;11.50;;;5.70;97.30;;;;;;5028106;28;20223;-85
2021/10/16 06:56:50;;;;;;;26.63;9.20;;;5.80;97.30;;;;;;5025658;28;20181;-85
2021/10/16 06:59:16;;;;;;;19.23;8.50;;;5.90;97.30;;;;;;5028349;28;20188;-85
2021/10/16 07:01:41;;;;;;;16.60;8.10;;;6.00;97.30;;;;;;5026205;28;20235;-85
2021/10/16 07:04:07;;;;;;;14.80;7.30;;;6.00;97.30;;;;;;5026341;28;20200;-85
2021/10/16 07:06:33;;;;;;;16.67;8.20;;;6.10;97.30;;;;;;5024609;28;20183;-85
2021/10/16 07:08:59;;;;;;;28.70;9.50;;;6.10;97.30;;;;;;5030184;28;20449;-85
2021/10/16 07:11:25;;;;;;;15.70;7.77;;;6.20;97.30;;;;;;5030019;28;20263;-85
2021/10/16 07:13:50;;;;;;;18.33;8.23;;;6.20;97.30;;;;;;5017977;28;20215;-85
2021/10/16 07:16:16;;;;;;;29.13;10.37;;;6.30;97.30;;;;;;5019324;28;20181;-85
2021/10/16 07:18:41;;;;;;;39.07;9.23;;;6.30;97.30;;;;;;5017149;28;20183;-86
2021/10/16 07:21:07;;;;;;;12.37;6.80;;;6.40;97.30;;;;;;5034112;28;20191;-85
2021/10/16 07:23:33;;;;;;;18.47;9.13;;;6.40;97.30;;;;;;5022219;28;20223;-85
2021/10/16 07:25:59;;;;;;;14.63;7.47;;;6.50;97.30;;;;;;5027377;28;20225;-85
2021/10/16 07:28:25;;;;;;;17.57;7.30;;;6.60;97.30;;;;;;5026281;28;20176;-83
2021/10/16 07:30:52;;;;;;;19.00;7.40;;;6.60;97.30;;;;;;5028259;28;20468;-86
2021/10/16 07:33:18;;;;;;;15.87;6.90;;;6.70;97.30;;;;;;5025837;28;20414;-86
2021/10/16 07:35:44;;;;;;;18.10;7.80;;;6.70;97.30;;;;;;5027046;28;20925;-85
2021/10/16 07:38:11;;;;;;;17.70;6.97;;;6.80;97.30;;;;;;5024477;28;20212;-86
2021/10/16 07:40:37;;;;;;;28.63;10.30;;;6.80;97.30;;;;;;5030543;28;20410;-87
2021/10/16 07:43:03;;;;;;;21.03;6.63;;;6.90;97.30;;;;;;5037230;28;20916;-86
2021/10/16 07:45:29;;;;;;;13.27;6.50;;;6.90;97.30;;;;;;5037395;28;20488;-88
2021/10/16 07:47:55;;;;;;;20.20;7.37;;;7.00;97.30;;;;;;5055067;28;20175;-85
2021/10/16 07:50:21;;;;;;;21.53;7.83;;;7.10;97.30;;;;;;5037000;28;20176;-85
2021/10/16 07:52:47;;;;;;;13.73;6.43;;;7.10;97.30;;;;;;5038125;28;20436;-85
2021/10/16 07:55:12;;;;;;;18.70;6.03;;;7.20;97.30;;;;;;5037003;28;20451;-85
2021/10/16 07:57:38;;;;;;;16.87;7.37;;;7.20;97.30;;;;;;5037074;28;20180;-85
2021/10/16 08:00:06;;;;;;;21.63;7.90;;;7.20;97.30;;;;;;5037138;28;20187;-83
2021/10/16 08:02:31;;;;;;;17.83;7.00;;;7.30;97.30;;;;;;5037280;28;20203;-83
2021/10/16 08:04:59;;;;;;;14.10;6.90;;;7.30;97.30;;;;;;5036753;28;20974;-84
2021/10/16 08:07:25;;;;;;;14.77;5.87;;;7.30;97.30;;;;;;5037655;28;20192;-86
2021/10/16 08:09:51;;;;;;;20.43;6.63;;;7.40;97.30;;;;;;5035470;28;20416;-84
2021/10/16 08:12:17;;;;;;;19.07;6.80;;;7.40;97.30;;;;;;4999899;28;20446;-85
2021/10/16 08:14:43;;;;;;;15.77;7.27;;;7.40;97.30;;;;;;4997937;28;20238;-84
2021/10/16 08:17:08;;;;;;;14.60;6.00;;;7.50;97.30;;;;;;4997086;28;20185;-86
2021/10/16 08:19:34;;;;;;;17.83;6.60;;;7.60;97.30;;;;;;5013608;28;20175;-85
2021/10/16 08:22:00;;;;;;;17.17;7.30;;;7.80;97.30;;;;;;5037657;28;20322;-85
2021/10/16 08:24:26;;;;;;;14.40;6.80;;;8.00;97.30;;;;;;5038675;28;20685;-84
2021/10/16 08:26:52;;;;;;;20.70;7.10;;;8.20;97.30;;;;;;5037264;28;20690;-84
2021/10/16 08:29:18;;;;;;;17.10;6.20;;;8.40;97.30;;;;;;5036910;28;20495;-84
2021/10/16 08:31:43;;;;;;;15.10;6.83;;;8.50;97.30;;;;;;5039377;28;20176;-84
2021/10/16 08:34:09;;;;;;;23.20;5.43;;;8.80;97.30;;;;;;5037995;28;20484;-84
2021/10/16 08:36:35;;;;;;;17.00;6.23;;;8.90;97.30;;;;;;5038262;28;20696;-83
2021/10/16 08:39:00;;;;;;;17.83;5.80;;;8.90;97.30;;;;;;5037213;28;20206;-84
2021/10/16 08:41:26;;;;;;;13.90;5.43;;;9.00;97.30;;;;;;5038477;28;20179;-84
2021/10/16 08:43:52;;;;;;;15.10;4.97;;;9.20;97.30;;;;;;5038058;28;20207;-84
2021/10/16 08:46:18;;;;;;;10.87;5.57;;;9.30;97.30;;;;;;5038107;28;20857;-84
2021/10/16 08:48:44;;;;;;;16.03;5.70;;;9.30;97.30;;;;;;5037511;28;20206;-86
2021/10/16 08:51:10;;;;;;;14.80;5.40;;;9.40;97.30;;;;;;5036988;28;20427;-85
2021/10/16 08:53:36;;;;;;;15.03;5.63;;;9.40;97.30;;;;;;5036662;28;20187;-86
2021/10/16 08:56:05;;;;;;;11.40;5.07;;;9.50;97.30;;;;;;5037119;28;20844;-83
2021/10/16 08:58:32;;;;;;;20.13;4.83;;;9.50;97.30;;;;;;5037987;28;20180;-84
2021/10/16 09:01:00;;;;;;;13.70;5.17;;;9.60;97.30;;;;;;5038512;28;20511;-85
2021/10/16 09:03:28;;;;;;;15.90;6.10;;;9.70;97.30;;;;;;5038964;28;20540;-86
2021/10/16 09:06:11;;;;;;;17.73;5.10;;;9.90;97.30;;;;;;5037881;28;20422;-85
2021/10/16 09:08:41;;;;;;;20.07;5.20;;;10.00;97.30;;;;;;5038365;28;20429;-84
2021/10/16 09:11:20;;;;;;;4.57;3.40;;;10.10;97.30;;;;;;5038178;28;20509;-84
2021/10/16 09:13:58;;;;;;;15.17;4.23;;;10.20;97.30;;;;;;5039239;28;20442;-84
2021/10/16 09:16:31;;;;;;;11.53;4.07;;;10.20;97.30;;;;;;5038963;28;20430;-84
2021/10/16 09:19:03;;;;;;;9.97;4.50;;;10.30;97.30;;;;;;5038690;28;20418;-84
2021/10/16 09:21:32;;;;;;;8.30;3.83;;;10.30;97.30;;;;;;5041885;28;20937;-84
2021/10/16 09:24:14;;;;;;;15.83;4.50;;;10.40;97.30;;;;;;5042457;28;20527;-84
2021/10/16 09:26:43;;;;;;;9.93;4.50;;;10.40;97.30;;;;;;5045321;28;20426;-88
2021/10/16 09:29:10;;;;;;;12.07;3.87;;;10.40;97.30;;;;;;5042083;28;20421;-87
2021/10/16 09:31:39;;;;;;;9.70;4.60;;;10.40;97.30;;;;;;5041972;28;20418;-86
2021/10/16 09:34:05;;;;;;;12.17;6.43;;;10.30;97.30;;;;;;5041518;28;20434;-86
2021/10/16 09:36:32;;;;;;;13.90;4.27;;;10.40;97.30;;;;;;5040812;28;20418;-86
2021/10/16 09:38:58;;;;;;;10.13;5.00;;;10.30;97.30;;;;;;5041260;28;20634;-86
2021/10/16 09:41:30;;;;;;;19.37;3.83;;;10.30;97.30;;;;;;5059181;28;20489;-86
2021/10/16 09:43:57;;;;;;;8.37;3.80;;;10.30;97.30;;;;;;5040822;28;20979;-86
2021/10/16 09:46:23;;;;;;;9.60;4.53;;;10.30;97.30;;;;;;5041399;28;20410;-86
2021/10/16 09:48:50;;;;;;;14.07;4.07;;;10.30;97.30;;;;;;5052962;28;20511;-86
2021/10/16 09:51:17;;;;;;;11.20;4.00;;;10.30;97.30;;;;;;5025375;28;20443;-87
2021/10/16 09:53:45;;;;;;;9.77;4.03;;;10.30;97.30;;;;;;5021217;28;20502;-86
2021/10/16 09:56:14;;;;;;;11.40;3.53;;;10.40;97.30;;;;;;5021218;28;20450;-86
2021/10/16 09:58:41;;;;;;;9.37;3.40;;;10.30;97.30;;;;;;5020469;28;20458;-87
2021/10/16 10:01:09;;;;;;;6.93;3.57;;;10.30;97.30;;;;;;5021778;28;20932;-88
2021/10/16 10:03:39;;;;;;;8.80;4.07;;;10.40;97.30;;;;;;5021617;28;20462;-87
2021/10/16 10:06:08;;;;;;;15.17;4.17;;;10.40;97.30;;;;;;5020734;28;20415;-86
2021/10/16 10:08:35;;;;;;;10.90;3.97;;;10.40;97.30;;;;;;5021077;28;20422;-87
2021/10/16 10:11:02;;;;;;;8.93;4.60;;;10.40;97.30;;;;;;5020639;28;20426;-86
2021/10/16 10:13:28;;;;;;;18.80;4.23;;;10.40;97.30;;;;;;5020942;28;20430;-86
2021/10/16 10:15:57;;;;;;;12.90;3.73;;;10.40;97.30;;;;;;5022069;28;20423;-87
2021/10/16 10:21:09;;;;;;;13.20;3.70;;;10.60;97.30;;;;;;5039218;28;20766;-86
2021/10/16 10:23:35;;;;;;;19.20;4.37;;;10.70;97.30;;;;;;5017257;28;20498;-86
2021/10/16 10:26:46;;;;;;;6.03;3.93;;;10.70;97.30;;;;;;5017565;28;20423;-86
2021/10/16 10:29:22;;;;;;;10.20;3.30;;;10.70;97.30;;;;;;5015988;28;20192;-87
2021/10/16 10:31:55;;;;;;;11.30;4.93;;;10.70;97.30;;;;;;5016913;28;20462;-86
2021/10/16 10:34:34;;;;;;;10.00;4.20;;;10.80;97.30;;;;;;5018212;28;21015;-87
2021/10/16 10:37:12;;;;;;;10.00;3.90;;;10.90;97.30;;;;;;5017469;28;20755;-87
2021/10/16 10:39:39;;;;;;;15.73;4.00;;;11.10;97.30;;;;;;5018095;28;20453;-88
2021/10/16 10:42:14;;;;;;;13.50;3.43;;;11.20;97.30;;;;;;5017762;28;20468;-86
2021/10/16 10:44:45;;;;;;;10.30;3.10;;;11.30;97.30;;;;;;5017295;28;20498;-89
2021/10/16 10:47:23;;;;;;;10.83;3.43;;;11.40;97.30;;;;;;5017653;28;20428;-87
2021/10/16 10:49:54;;;;;;;16.23;3.60;;;11.40;97.30;;;;;;5032899;28;20940;-87
2021/10/16 10:52:22;;;;;;;7.97;3.53;;;11.50;97.30;;;;;;5036998;28;20416;-86
2021/10/16 10:55:14;;;;;;;8.50;3.30;;;11.60;97.30;;;;;;5036645;28;20478;-86
2021/10/16 10:57:43;;;;;;;6.93;3.47;;;11.70;97.30;;;;;;5033131;28;20431;-87
2021/10/16 11:00:40;;;;;;;9.20;2.60;;;11.80;97.30;;;;;;5036668;28;20510;-87
2021/10/16 11:03:27;;;;;;;7.60;2.53;;;11.80;97.30;;;;;;5037227;28;20540;-87
2021/10/16 11:05:53;;;;;;;7.53;2.97;;;12.00;97.30;;;;;;5035375;28;20419;-87
2021/10/16 11:08:21;;;;;;;17.90;2.97;;;12.00;97.30;;;;;;5036247;28;20506;-88
2021/10/16 11:10:47;;;;;;;5.50;2.33;;;12.20;97.30;;;;;;5037188;28;20414;-87
2021/10/16 11:13:15;;;;;;;10.40;2.40;;;12.50;97.30;;;;;;5019630;28;20457;-87
2021/10/16 11:15:44;;;;;;;8.80;3.20;;;12.80;97.30;;;;;;5036899;28;20843;-85
2021/10/16 11:18:15;;;;;;;6.07;2.60;;;13.10;97.30;;;;;;5036553;28;20518;-86
2021/10/16 11:20:42;;;;;;;11.73;2.70;;;13.20;97.30;;;;;;5036637;28;20427;-85
2021/10/16 11:23:18;;;;;;;4.87;2.20;;;13.20;97.30;;;;;;5036174;28;20864;-84
2021/10/16 11:26:01;;;;;;;7.97;2.90;;;13.10;97.30;;;;;;5037716;28;20434;-84
2021/10/16 11:28:29;;;;;;;8.93;2.47;;;13.10;97.30;;;;;;5036469;28;20406;-85
2021/10/16 11:30:56;;;;;;;7.93;3.10;;;13.10;97.30;;;;;;5036601;28;20416;-85
2021/10/16 11:33:24;;;;;;;5.10;2.60;;;13.20;97.30;;;;;;5036086;28;20437;-85
2021/10/16 11:35:52;;;;;;;7.40;2.40;;;13.30;97.30;;;;;;5035759;28;20419;-85
2021/10/16 11:38:23;;;;;;;4.83;1.77;;;13.40;97.30;;;;;;5036180;28;20462;-84
2021/10/16 11:40:49;;;;;;;9.63;1.97;;;13.70;97.30;;;;;;5027073;28;20484;-86
2021/10/16 11:43:17;;;;;;;6.10;1.90;;;13.90;97.30;;;;;;5015178;28;20467;-85
2021/10/16 11:45:45;;;;;;;6.57;1.90;;;13.90;97.30;;;;;;5015410;28;20859;-84
2021/10/16 11:48:13;;;;;;;13.20;2.00;;;13.80;97.30;;;;;;5015972;28;20925;-85
2021/10/16 11:50:44;;;;;;;8.53;2.17;;;13.60;97.10;;;;;;5015452;28;20413;-85
2021/10/16 11:53:15;;;;;;;4.10;1.77;;;13.40;97.30;;;;;;5015783;28;20845;-85
2021/10/16 11:55:53;;;;;;;6.60;2.00;;;13.20;97.30;;;;;;5015426;28;20467;-85
2021/10/16 11:58:21;;;;;;;5.13;2.00;;;13.00;97.30;;;;;;5015653;28;20424;-85
2021/10/16 12:01:01;;;;;;;5.83;2.10;;;13.00;97.30;;;;;;5016447;28;20420;-85
2021/10/16 12:03:40;;;;;;;5.90;2.10;;;13.40;97.30;;;;;;5016992;28;20444;-85
2021/10/16 12:06:06;;;;;;;5.73;2.43;;;13.50;97.30;;;;;;5015680;28;20416;-85
2021/10/16 12:08:39;;;;;;;7.37;2.17;;;13.60;97.30;;;;;;5015596;28;20419;-85
2021/10/16 12:11:05;;;;;;;7.00;2.47;;;13.70;97.00;;;;;;5015572;28;20424;-85
2021/10/16 12:13:38;;;;;;;8.90;2.40;;;13.90;97.30;;;;;;5016718;28;20787;-85
2021/10/16 12:16:14;;;;;;;8.43;2.53;;;14.00;97.00;;;;;;5015409;28;20165;-85
2021/10/16 12:18:53;;;;;;;3.97;2.07;;;14.10;96.50;;;;;;5015704;28;20416;-84
2021/10/16 12:21:34;;;;;;;4.07;1.90;;;14.00;95.90;;;;;;5015623;28;20420;-85
2021/10/16 12:24:11;;;;;;;8.73;2.13;;;13.80;94.50;;;;;;5018392;28;20475;-85
2021/10/16 12:26:38;;;;;;;5.90;2.00;;;13.80;95.50;;;;;;5018286;28;20947;-85
2021/10/16 12:29:25;;;;;;;3.67;1.90;;;14.20;94.40;;;;;;5017929;28;20411;-85
2021/10/16 12:31:52;;;;;;;5.13;2.30;;;14.70;94.00;;;;;;5017318;28;20688;-85
2021/10/16 12:34:22;;;;;;;7.23;2.43;;;15.00;92.40;;;;;;5017708;28;20964;-85
2021/10/16 12:36:54;;;;;;;5.10;1.40;;;14.90;90.80;;;;;;5018380;28;20419;-86
2021/10/16 12:39:35;;;;;;;4.10;1.63;;;14.60;91.40;;;;;;5018720;28;20415;-85
2021/10/16 12:42:07;;;;;;;5.33;2.23;;;14.30;92.10;;;;;;5017887;28;20450;-85
2021/10/16 12:44:39;;;;;;;5.40;1.40;;;14.00;91.90;;;;;;5035836;28;20419;-84
2021/10/16 12:47:14;;;;;;;4.60;1.70;;;13.90;93.80;;;;;;5019151;28;20419;-85
2021/10/16 12:49:58;;;;;;;6.23;1.90;;;13.80;93.90;;;;;;5019666;28;20944;-85
2021/10/16 12:52:46;;;;;;;5.23;2.43;;;13.80;95.10;;;;;;5019569;28;20415;-84
2021/10/16 12:55:11;;;;;;;9.60;2.53;;;13.70;94.50;;;;;;5020986;28;20435;-84